Time;durP1;ratioP1;P1;durP2;ratioP2;P2;SDS_P1;SDS_P2;PMS_P1;PMS_P2;Temp;Humidity;BMP_temperature;BMP_pressure;BME280_temperature;BME280_humidity;BME280_pressure;Samples;Min_cycle;Max_cycle;Signal;HPM_P1;HPM_P2
2023/07/25 00:00:04;;;;;;;;;;;;;;;20.02;100.00;97217.06;2540982;29;19931;-93
2023/07/25 00:01:19;;;;;;;;;;;;;;;20.15;100.00;97219.53;2539769;29;20243;-93
2023/07/25 00:02:35;;;;;;;;;;;;;;;20.14;100.00;97217.00;2540691;29;20403;-93
2023/07/25 00:03:50;;;;;;;;;;;;;;;20.03;100.00;97212.63;2539953;29;19931;-92
2023/07/25 00:05:06;;;;;;;;;;;;;;;20.03;100.00;97212.63;2540710;29;20391;-93
2023/07/25 00:06:22;;;;;;;;;;;;;;;19.96;100.00;97204.34;2539426;29;19934;-91
2023/07/25 00:07:37;;;;;;;;;;;;;;;20.12;100.00;97200.34;2540699;29;19927;-91
2023/07/25 00:08:52;;;;;;;;;;;;;;;20.06;100.00;97200.91;2539867;29;19927;-93
2023/07/25 00:10:08;;;;;;;;;;;;;;;20.07;100.00;97199.91;2540982;29;19934;-92
2023/07/25 00:11:24;;;;;;;;;;;;;;;20.08;100.00;97201.59;2528900;29;20392;-92
2023/07/25 00:12:39;;;;;;;;;;;;;;;20.03;100.00;97208.13;2524480;29;19931;-93
2023/07/25 00:13:54;;;;;;;;;;;;;;;20.04;100.00;97209.84;2533404;29;19931;-92
2023/07/25 00:15:10;;;;;;;;;;;;;;;20.11;100.00;97217.25;2539808;29;20005;-94
2023/07/25 00:16:26;;;;;;;;;;;;;;;19.87;100.00;97211.25;2540147;29;19931;-92
2023/07/25 00:17:41;;;;;;;;;;;;;;;19.93;100.00;97209.06;2539461;29;19931;-93
2023/07/25 00:18:56;;;;;;;;;;;;;;;19.82;100.00;97213.44;2529824;29;20030;-92
2023/07/25 00:20:12;;;;;;;;;;;;;;;19.97;100.00;97210.47;2533349;29;20344;-92
2023/07/25 00:21:27;;;;;;;;;;;;;;;19.98;100.00;97205.03;2540133;29;20315;-91
2023/07/25 00:22:43;;;;;;;;;;;;;;;19.94;100.00;97198.31;2539625;29;20387;-92
2023/07/25 00:23:58;;;;;;;;;;;;;;;19.92;100.00;97199.38;2540408;29;19938;-92
2023/07/25 00:25:17;;;;;;;;;;;;;;;20.03;100.00;97204.66;2539265;29;19931;-92
2023/07/25 00:26:32;;;;;;;;;;;;;;;20.07;100.00;97205.22;2539904;29;20315;-93
2023/07/25 00:27:47;;;;;;;;;;;;;;;20.17;100.00;97203.44;2539508;29;19931;-92
2023/07/25 00:29:03;;;;;;;;;;;;;;;19.96;100.00;97203.47;2540607;29;19950;-92
2023/07/25 00:30:18;;;;;;;;;;;;;;;19.99;100.00;97203.25;2539238;29;19958;-92
2023/07/25 00:31:33;;;;;;;;;;;;;;;20.01;100.00;97210.09;2540464;29;20491;-91
2023/07/25 00:32:49;;;;;;;;;;;;;;;20.00;100.00;97203.09;2528991;29;19995;-92
2023/07/25 00:34:06;;;;;;;;;;;;;;;20.03;100.00;97202.81;2534164;29;20457;-92
2023/07/25 00:35:22;;;;;;;;;;;;;;;20.02;100.00;97200.31;2539182;29;19938;-93
2023/07/25 00:36:37;;;;;;;;;;;;;;;19.94;100.00;97203.63;2540562;29;19935;-92
2023/07/25 00:37:52;;;;;;;;;;;;;;;19.92;100.00;97204.69;2539682;29;19954;-92
2023/07/25 00:39:08;;;;;;;;;;;;;;;19.83;100.00;97201.84;2540511;29;19939;-94
2023/07/25 00:40:23;;;;;;;;;;;;;;;19.83;100.00;97201.03;2539334;29;19931;-92
2023/07/25 00:41:38;;;;;;;;;;;;;;;19.69;100.00;97202.19;2540078;29;19931;-93
2023/07/25 00:42:54;;;;;;;;;;;;;;;19.66;100.00;97205.13;2539360;29;20383;-92
2023/07/25 00:44:10;;;;;;;;;;;;;;;19.56;100.00;97203.28;2528930;29;19953;-93
2023/07/25 00:45:25;;;;;;;;;;;;;;;19.44;100.00;97205.13;2533988;29;19927;-92
2023/07/25 00:46:41;;;;;;;;;;;;;;;19.33;100.00;97205.19;2539624;29;19990;-93
2023/07/25 00:47:57;;;;;;;;;;;;;;;19.26;100.00;97204.84;2540205;29;19966;-93
2023/07/25 00:49:12;;;;;;;;;;;;;;;19.12;100.00;97202.50;2539296;29;19979;-93
2023/07/25 00:50:29;;;;;;;;;;;;;;;19.08;100.00;97209.06;2540112;29;19947;-93
2023/07/25 00:51:44;;;;;;;;;;;;;;;18.94;100.00;97202.22;2539246;29;20318;-93
2023/07/25 00:53:00;;;;;;;;;;;;;;;18.94;100.00;97210.19;2539930;29;19927;-92
2023/07/25 00:54:16;;;;;;;;;;;;;;;19.04;100.00;97206.66;2539218;29;19931;-93
2023/07/25 00:55:32;;;;;;;;;;;;;;;18.96;100.00;97214.38;2540374;29;20298;-92
2023/07/25 00:56:47;;;;;;;;;;;;;;;18.95;100.00;97212.69;2539209;29;19946;-92
2023/07/25 00:58:03;;;;;;;;;;;;;;;18.91;100.00;97214.75;2539690;29;20395;-93
2023/07/25 00:59:18;;;;;;;;;;;;;;;18.88;100.00;97214.16;2538980;29;20317;-92
2023/07/25 01:00:36;;;;;;;;;;;;;;;19.03;100.00;97212.09;2539506;29;20002;-92
2023/07/25 01:01:51;;;;;;;;;;;;;;;19.07;100.00;97216.19;2539289;29;20565;-92
2023/07/25 01:03:07;;;;;;;;;;;;;;;19.09;100.00;97208.94;2539907;29;19958;-93
2023/07/25 01:04:23;;;;;;;;;;;;;;;19.00;100.00;97212.34;2538855;29;20030;-93
2023/07/25 01:05:41;;;;;;;;;;;;;;;19.00;100.00;97213.19;2540040;29;19951;-93
2023/07/25 01:06:59;;;;;;;;;;;;;;;18.78;100.00;97212.25;2538473;29;20264;-92
2023/07/25 01:08:16;;;;;;;;;;;;;;;18.84;100.00;97204.75;2539796;29;20335;-91
2023/07/25 01:09:35;;;;;;;;;;;;;;;18.90;100.00;97212.22;2538749;29;19975;-92
2023/07/25 01:10:51;;;;;;;;;;;;;;;18.73;100.00;97214.47;2529274;29;19928;-92
2023/07/25 01:12:06;;;;;;;;;;;;;;;18.67;100.00;97214.13;2528554;29;19938;-92
2023/07/25 01:13:22;;;;;;;;;;;;;;;18.74;100.00;97212.63;2533608;29;19931;-92
2023/07/25 01:14:39;;;;;;;;;;;;;;;18.73;100.00;97217.09;2538522;29;19962;-92
2023/07/25 01:15:55;;;;;;;;;;;;;;;18.80;100.00;97216.59;2539523;29;20034;-92
2023/07/25 01:17:12;;;;;;;;;;;;;;;18.77;100.00;97220.31;2539034;29;20371;-93
2023/07/25 01:18:27;;;;;;;;;;;;;;;18.77;100.00;97221.19;2539115;29;19938;-92
2023/07/25 01:19:44;;;;;;;;;;;;;;;18.66;100.00;97223.88;2539310;29;19962;-93
2023/07/25 01:20:59;;;;;;;;;;;;;;;18.43;100.00;97223.88;2538966;29;19927;-93
2023/07/25 01:22:15;;;;;;;;;;;;;;;18.43;100.00;97221.25;2539606;29;19983;-92
2023/07/25 01:23:31;;;;;;;;;;;;;;;18.40;100.00;97218.84;2538856;29;19928;-92
2023/07/25 01:24:47;;;;;;;;;;;;;;;18.38;100.00;97220.78;2539600;29;19935;-93
2023/07/25 01:26:02;;;;;;;;;;;;;;;18.21;100.00;97211.50;2538630;29;19931;-92
2023/07/25 01:27:18;;;;;;;;;;;;;;;18.13;100.00;97213.94;2539626;29;19942;-93
2023/07/25 01:28:33;;;;;;;;;;;;;;;18.07;100.00;97216.09;2538783;29;19931;-93
2023/07/25 01:29:49;;;;;;;;;;;;;;;18.07;100.00;97220.56;2539902;29;19931;-92
2023/07/25 01:31:04;;;;;;;;;;;;;;;18.05;100.00;97214.53;2538578;29;19931;-92
2023/07/25 01:32:20;;;;;;;;;;;;;;;18.07;100.00;97223.22;2539625;29;19934;-93
2023/07/25 01:33:35;;;;;;;;;;;;;;;18.07;100.00;97217.91;2538680;29;19966;-93
2023/07/25 01:34:50;;;;;;;;;;;;;;;18.02;100.00;97220.91;2539598;29;19978;-93
2023/07/25 01:36:06;;;;;;;;;;;;;;;17.92;100.00;97222.56;2538563;29;19986;-93
2023/07/25 01:37:21;;;;;;;;;;;;;;;18.09;100.00;97221.28;2529223;29;19927;-93
2023/07/25 01:38:37;;;;;;;;;;;;;;;18.10;100.00;97222.13;2532197;29;19938;-92
2023/07/25 01:39:52;;;;;;;;;;;;;;;18.13;100.00;97232.47;2539340;29;19931;-91
2023/07/25 01:41:08;;;;;;;;;;;;;;;18.24;100.00;97234.28;2538241;29;19987;-93
2023/07/25 01:42:23;;;;;;;;;;;;;;;18.18;100.00;97231.16;2539652;29;20526;-94
2023/07/25 01:43:38;;;;;;;;;;;;;;;18.04;100.00;97234.88;2538885;29;19931;-93
2023/07/25 01:44:55;;;;;;;;;;;;;;;18.00;100.00;97227.25;2539816;29;19938;-92
2023/07/25 01:46:10;;;;;;;;;;;;;;;18.18;100.00;97228.50;2527829;29;20053;-92
2023/07/25 01:47:26;;;;;;;;;;;;;;;18.13;100.00;97230.66;2532451;29;19939;-93
2023/07/25 01:48:41;;;;;;;;;;;;;;;18.32;100.00;97226.56;2539352;29;20287;-93
2023/07/25 01:49:56;;;;;;;;;;;;;;;18.43;100.00;97231.00;2538585;29;20379;-92
2023/07/25 01:51:12;;;;;;;;;;;;;;;18.43;100.00;97225.72;2539596;29;19938;-92
2023/07/25 01:52:27;;;;;;;;;;;;;;;18.47;100.00;97228.00;2538434;29;19979;-93
2023/07/25 01:53:43;;;;;;;;;;;;;;;18.34;100.00;97220.16;2538670;29;20450;-93
2023/07/25 01:54:58;;;;;;;;;;;;;;;18.52;100.00;97219.69;2538300;29;19979;-92
2023/07/25 01:56:13;;;;;;;;;;;;;;;18.49;100.00;97218.13;2539400;29;20032;-93
2023/07/25 01:57:29;;;;;;;;;;;;;;;18.44;100.00;97212.34;2538903;29;19982;-92
2023/07/25 01:58:44;;;;;;;;;;;;;;;18.57;100.00;97214.00;2529224;29;19942;-93
2023/07/25 02:00:00;;;;;;;;;;;;;;;18.56;100.00;97214.97;2532135;29;19934;-92
2023/07/25 02:01:15;;;;;;;;;;;;;;;18.48;100.00;97212.94;2539134;29;20371;-92
2023/07/25 02:02:30;;;;;;;;;;;;;;;18.43;100.00;97215.13;2538276;29;20317;-92
2023/07/25 02:03:46;;;;;;;;;;;;;;;18.39;100.00;97214.50;2539619;29;19934;-93
2023/07/25 02:05:02;;;;;;;;;;;;;;;18.41;100.00;97203.81;2538267;29;19931;-92
2023/07/25 02:06:17;;;;;;;;;;;;;;;18.31;100.00;97212.47;2528688;29;19932;-93
2023/07/25 02:07:32;;;;;;;;;;;;;;;18.18;100.00;97214.41;2522152;29;19971;-92
2023/07/25 02:08:48;;;;;;;;;;;;;;;18.30;100.00;97216.09;2528942;29;19934;-90
2023/07/25 02:10:04;;;;;;;;;;;;;;;18.28;100.00;97215.38;2531546;29;20600;-92
2023/07/25 02:11:19;;;;;;;;;;;;;;;18.16;100.00;97211.03;2539229;29;19982;-92
2023/07/25 02:12:38;;;;;;;;;;;;;;;17.96;100.00;97207.28;2538477;29;19935;-92
2023/07/25 02:13:53;;;;;;;;;;;;;;;17.83;100.00;97204.75;2539238;29;19931;-92
2023/07/25 02:15:09;;;;;;;;;;;;;;;17.87;100.00;97209.69;2538461;29;20013;-92
2023/07/25 02:16:24;;;;;;;;;;;;;;;17.76;100.00;97204.41;2538574;29;20402;-92
2023/07/25 02:17:40;;;;;;;;;;;;;;;17.96;100.00;97204.63;2539617;29;19927;-92
2023/07/25 02:18:57;;;;;;;;;;;;;;;17.88;100.00;97202.59;2538730;29;19981;-94
2023/07/25 02:20:12;;;;;;;;;;;;;;;17.78;100.00;97205.13;2538593;29;19933;-93
2023/07/25 02:21:28;;;;;;;;;;;;;;;17.81;100.00;97206.66;2538464;29;19941;-93
2023/07/25 02:22:43;;;;;;;;;;;;;;;18.05;100.00;97215.38;2528512;29;19931;-93
2023/07/25 02:23:59;;;;;;;;;;;;;;;18.12;100.00;97215.72;2521900;29;19947;-92
2023/07/25 02:25:14;;;;;;;;;;;;;;;18.06;100.00;97216.22;2532920;29;19935;-92
2023/07/25 02:26:30;;;;;;;;;;;;;;;18.18;100.00;97217.91;2538294;29;19978;-93
2023/07/25 02:27:46;;;;;;;;;;;;;;;18.25;100.00;97220.06;2539282;29;19927;-93
2023/07/25 02:29:02;;;;;;;;;;;;;;;18.30;100.00;97218.75;2538170;29;19931;-93
2023/07/25 02:30:17;;;;;;;;;;;;;;;18.28;100.00;97227.75;2539260;29;20425;-93
2023/07/25 02:31:33;;;;;;;;;;;;;;;18.29;100.00;97224.16;2538481;29;20430;-92
2023/07/25 02:32:49;;;;;;;;;;;;;;;18.33;100.00;97222.97;2539151;29;20032;-93
2023/07/25 02:34:04;;;;;;;;;;;;;;;18.36;100.00;97212.13;2538393;29;20002;-93
2023/07/25 02:35:19;;;;;;;;;;;;;;;18.48;100.00;97215.56;2528827;29;19968;-92
2023/07/25 02:36:36;;;;;;;;;;;;;;;18.48;100.00;97216.44;2532088;29;19931;-92
2023/07/25 02:37:51;;;;;;;;;;;;;;;18.45;100.00;97214.03;2539206;29;19998;-92
2023/07/25 02:39:07;;;;;;;;;;;;;;;18.54;100.00;97217.75;2538347;29;19974;-92
2023/07/25 02:40:22;;;;;;;;;;;;;;;18.54;100.00;97222.19;2539773;29;19931;-93
2023/07/25 02:41:38;;;;;;;;;;;;;;;18.32;100.00;97215.97;2538272;29;19935;-93
2023/07/25 02:42:53;;;;;;;;;;;;;;;18.36;100.00;97206.81;2539759;29;19986;-94
2023/07/25 02:44:08;;;;;;;;;;;;;;;18.37;100.00;97203.19;2538785;29;20189;-92
2023/07/25 02:45:24;;;;;;;;;;;;;;;18.40;100.00;97204.78;2538833;29;19938;-92
2023/07/25 02:46:39;;;;;;;;;;;;;;;18.35;100.00;97207.78;2539996;29;19931;-93
2023/07/25 02:47:55;;;;;;;;;;;;;;;18.29;100.00;97216.19;2538535;29;19970;-91
2023/07/25 02:49:10;;;;;;;;;;;;;;;18.34;100.00;97219.34;2539624;29;19958;-92
2023/07/25 02:50:26;;;;;;;;;;;;;;;18.34;100.00;97225.47;2538480;29;19934;-92
2023/07/25 02:51:41;;;;;;;;;;;;;;;18.35;100.00;97226.31;2539461;29;19931;-92
2023/07/25 02:52:56;;;;;;;;;;;;;;;18.05;100.00;97225.13;2538601;29;20379;-92
2023/07/25 02:54:12;;;;;;;;;;;;;;;18.19;100.00;97221.38;2539591;29;19931;-92
2023/07/25 02:55:29;;;;;;;;;;;;;;;18.13;100.00;97213.94;2538390;29;20411;-93
2023/07/25 02:56:44;;;;;;;;;;;;;;;18.14;100.00;97219.09;2528958;29;19927;-93
2023/07/25 02:57:59;;;;;;;;;;;;;;;17.96;100.00;97210.78;2532257;29;19958;-94
2023/07/25 02:59:15;;;;;;;;;;;;;;;18.01;100.00;97218.34;2539821;29;19931;-92
2023/07/25 03:00:30;;;;;;;;;;;;;;;17.90;100.00;97212.09;2538390;29;19941;-93
2023/07/25 03:01:46;;;;;;;;;;;;;;;17.79;100.00;97214.75;2539228;29;19950;-92
2023/07/25 03:03:01;;;;;;;;;;;;;;;17.79;100.00;97210.28;2538480;29;20277;-91
2023/07/25 03:04:18;;;;;;;;;;;;;;;17.80;100.00;97216.41;2539511;29;19931;-92
2023/07/25 03:05:33;;;;;;;;;;;;;;;17.91;100.00;97223.53;2538372;29;19931;-92
2023/07/25 03:06:48;;;;;;;;;;;;;;;18.09;100.00;97228.38;2539082;29;20394;-93
2023/07/25 03:08:04;;;;;;;;;;;;;;;18.03;100.00;97227.06;2538709;29;19931;-92
2023/07/25 03:09:19;;;;;;;;;;;;;;;17.98;100.00;97224.75;2529445;29;19974;-92
2023/07/25 03:10:35;;;;;;;;;;;;;;;17.96;100.00;97217.88;2532273;29;19927;-92
2023/07/25 03:11:51;;;;;;;;;;;;;;;18.25;100.00;97217.41;2539587;29;19927;-93
2023/07/25 03:13:07;;;;;;;;;;;;;;;18.13;100.00;97217.41;2538136;29;20010;-92
2023/07/25 03:14:22;;;;;;;;;;;;;;;18.03;100.00;97222.59;2538526;29;20053;-92
2023/07/25 03:15:38;;;;;;;;;;;;;;;17.99;100.00;97221.13;2538813;29;19987;-91
2023/07/25 03:16:53;;;;;;;;;;;;;;;17.95;100.00;97224.13;2538629;29;19931;-92
2023/07/25 03:18:09;;;;;;;;;;;;;;;17.88;100.00;97224.63;2539982;29;19931;-93
2023/07/25 03:19:24;;;;;;;;;;;;;;;17.75;100.00;97221.25;2528398;29;19931;-93
2023/07/25 03:20:40;;;;;;;;;;;;;;;17.78;100.00;97221.00;2523436;29;19927;-92
2023/07/25 03:21:55;;;;;;;;;;;;;;;17.92;100.00;97223.41;2533418;29;20295;-93
2023/07/25 03:23:11;;;;;;;;;;;;;;;18.09;100.00;97231.03;2542308;29;19993;-94
2023/07/25 03:24:26;;;;;;;;;;;;;;;18.07;100.00;97225.84;2541512;29;19928;-94
2023/07/25 03:25:42;;;;;;;;;;;;;;;18.00;100.00;97217.53;2542360;29;20017;-96
2023/07/25 03:26:57;;;;;;;;;;;;;;;18.11;100.00;97214.06;2541252;29;19934;-93
2023/07/25 03:28:12;;;;;;;;;;;;;;;18.01;100.00;97213.91;2542152;29;19935;-93
2023/07/25 03:29:28;;;;;;;;;;;;;;;17.95;100.00;97214.41;2541502;29;19931;-94
2023/07/25 03:30:43;;;;;;;;;;;;;;;17.89;100.00;97215.72;2542576;29;19931;-94
2023/07/25 03:31:59;;;;;;;;;;;;;;;17.84;100.00;97214.38;2541471;29;20007;-94
2023/07/25 03:33:14;;;;;;;;;;;;;;;17.82;100.00;97219.78;2542566;29;19923;-94
2023/07/25 03:34:30;;;;;;;;;;;;;;;17.79;100.00;97215.56;2541308;29;20018;-94
2023/07/25 03:35:45;;;;;;;;;;;;;;;17.78;100.00;97218.34;2533020;29;20344;-94
2023/07/25 03:37:00;;;;;;;;;;;;;;;17.92;100.00;97220.78;2534578;29;19931;-93
2023/07/25 03:38:16;;;;;;;;;;;;;;;17.87;100.00;97228.22;2542579;29;20512;-95
2023/07/25 03:39:31;;;;;;;;;;;;;;;17.84;100.00;97240.88;2541219;29;19942;-95
2023/07/25 03:40:47;;;;;;;;;;;;;;;17.88;100.00;97240.50;2540726;29;19931;-93
2023/07/25 03:42:02;;;;;;;;;;;;;;;17.75;100.00;97240.59;2540993;29;19931;-93
2023/07/25 03:43:18;;;;;;;;;;;;;;;17.77;100.00;97237.84;2541006;29;19959;-94
2023/07/25 03:44:33;;;;;;;;;;;;;;;17.59;100.00;97227.69;2541910;29;19938;-93
2023/07/25 03:45:49;;;;;;;;;;;;;;;17.69;100.00;97224.34;2542720;29;19927;-92
2023/07/25 03:47:04;;;;;;;;;;;;;;;17.58;100.00;97218.06;2541812;29;20386;-93
2023/07/25 03:48:20;;;;;;;;;;;;;;;17.48;100.00;97212.63;2541576;29;19934;-93
2023/07/25 03:49:35;;;;;;;;;;;;;;;17.47;100.00;97204.84;2542320;29;20710;-93
2023/07/25 03:50:51;;;;;;;;;;;;;;;17.34;100.00;97200.47;2540883;29;19931;-93
2023/07/25 03:52:06;;;;;;;;;;;;;;;17.25;100.00;97200.28;2542935;29;19930;-94
2023/07/25 03:53:22;;;;;;;;;;;;;;;17.22;100.00;97199.56;2530600;29;19937;-93
2023/07/25 03:54:37;;;;;;;;;;;;;;;17.32;100.00;97199.75;2535732;29;19931;-93
2023/07/25 03:55:52;;;;;;;;;;;;;;;17.38;100.00;97198.41;2530251;29;19938;-93
2023/07/25 03:57:08;;;;;;;;;;;;;;;17.30;100.00;97193.69;2525380;29;20349;-93
2023/07/25 03:58:24;;;;;;;;;;;;;;;17.28;100.00;97197.44;2530154;29;19931;-94
2023/07/25 03:59:39;;;;;;;;;;;;;;;17.35;100.00;97194.22;2535750;29;19946;-95
2023/07/25 04:00:54;;;;;;;;;;;;;;;17.34;100.00;97200.47;2530036;29;19938;-94
2023/07/25 04:02:10;;;;;;;;;;;;;;;17.40;100.00;97190.38;2535730;29;19978;-94
2023/07/25 04:03:26;;;;;;;;;;;;;;;17.40;100.00;97196.53;2530062;29;19954;-94
2023/07/25 04:04:41;;;;;;;;;;;;;;;17.42;100.00;97197.25;2537786;29;19934;-94
2023/07/25 04:05:59;;;;;;;;;;;;;;;17.50;100.00;97188.72;2531597;29;19958;-94
2023/07/25 04:07:14;;;;;;;;;;;;;;;17.56;100.00;97200.63;2535916;29;19942;-94
2023/07/25 04:08:30;;;;;;;;;;;;;;;17.56;100.00;97198.00;2540535;29;19938;-94
2023/07/25 04:09:45;;;;;;;;;;;;;;;17.57;100.00;97194.38;2541381;29;19931;-94
2023/07/25 04:11:00;;;;;;;;;;;;;;;17.76;100.00;97199.94;2541544;29;19931;-94
2023/07/25 04:12:16;;;;;;;;;;;;;;;17.64;100.00;97196.44;2530257;29;19931;-95
2023/07/25 04:13:31;;;;;;;;;;;;;;;17.67;100.00;97197.16;2525200;29;19928;-93
2023/07/25 04:14:47;;;;;;;;;;;;;;;17.63;100.00;97201.84;2530345;29;19928;-93
2023/07/25 04:16:03;;;;;;;;;;;;;;;17.58;100.00;97193.41;2535383;29;19934;-94
2023/07/25 04:17:18;;;;;;;;;;;;;;;17.61;100.00;97193.16;2540403;29;20002;-94
2023/07/25 04:18:33;;;;;;;;;;;;;;;17.61;100.00;97183.44;2541524;29;19931;-94
2023/07/25 04:19:49;;;;;;;;;;;;;;;17.67;100.00;97179.47;2540507;29;19963;-94
2023/07/25 04:21:04;;;;;;;;;;;;;;;17.62;100.00;97177.19;2541395;29;20391;-94
2023/07/25 04:22:20;;;;;;;;;;;;;;;17.71;100.00;97170.34;2539977;29;19938;-94
2023/07/25 04:23:35;;;;;;;;;;;;;;;17.66;100.00;97175.13;2541444;29;19931;-93
2023/07/25 04:24:51;;;;;;;;;;;;;;;17.51;100.00;97169.22;2540036;29;20387;-92
2023/07/25 04:26:06;;;;;;;;;;;;;;;17.59;100.00;97179.22;2541015;29;19931;-92
2023/07/25 04:27:21;;;;;;;;;;;;;;;17.61;100.00;97180.81;2539793;29;20022;-94
2023/07/25 04:28:37;;;;;;;;;;;;;;;17.79;100.00;97185.63;2540953;29;20339;-93
2023/07/25 04:29:52;;;;;;;;;;;;;;;17.91;100.00;97192.59;2540052;29;19931;-93
2023/07/25 04:31:08;;;;;;;;;;;;;;;17.90;100.00;97201.50;2540949;29;19950;-93
2023/07/25 04:32:24;;;;;;;;;;;;;;;18.03;100.00;97208.53;2528983;29;20303;-93
2023/07/25 04:33:40;;;;;;;;;;;;;;;18.10;100.00;97217.66;2530163;29;19927;-93
2023/07/25 04:34:56;;;;;;;;;;;;;;;18.17;100.00;97218.88;2529415;29;20956;-93
2023/07/25 04:36:11;;;;;;;;;;;;;;;18.20;100.00;97221.28;2534258;29;19931;-92
2023/07/25 04:37:26;;;;;;;;;;;;;;;18.11;100.00;97213.22;2539474;29;19931;-92
2023/07/25 04:38:42;;;;;;;;;;;;;;;17.98;100.00;97208.84;2539710;29;19935;-94
2023/07/25 04:39:58;;;;;;;;;;;;;;;18.17;100.00;97204.78;2540300;29;19935;-92
2023/07/25 04:41:14;;;;;;;;;;;;;;;18.30;100.00;97205.50;2539850;29;19935;-91
2023/07/25 04:42:29;;;;;;;;;;;;;;;18.37;100.00;97213.78;2540289;29;19931;-91
2023/07/25 04:43:44;;;;;;;;;;;;;;;18.41;100.00;97211.75;2539954;29;20318;-93
2023/07/25 04:45:00;;;;;;;;;;;;;;;18.45;100.00;97227.28;2530221;29;20006;-93
2023/07/25 04:46:15;;;;;;;;;;;;;;;18.47;100.00;97225.34;2533145;29;20391;-92
2023/07/25 04:47:30;;;;;;;;;;;;;;;18.60;100.00;97227.84;2530101;29;20142;-92
2023/07/25 04:48:46;;;;;;;;;;;;;;;18.66;100.00;97231.81;2533470;29;19934;-93
2023/07/25 04:50:01;;;;;;;;;;;;;;;18.72;100.00;97230.47;2540466;29;20018;-92
2023/07/25 04:51:17;;;;;;;;;;;;;;;18.77;100.00;97229.13;2539667;29;19934;-91
2023/07/25 04:52:32;;;;;;;;;;;;;;;18.80;100.00;97229.84;2540413;29;19982;-91
2023/07/25 04:53:47;;;;;;;;;;;;;;;18.81;100.00;97224.44;2539879;29;19927;-92
2023/07/25 04:55:03;;;;;;;;;;;;;;;18.80;100.00;97228.06;2540408;29;20575;-92
2023/07/25 04:56:19;;;;;;;;;;;;;;;18.83;100.00;97235.75;2538820;29;19953;-93
2023/07/25 04:57:34;;;;;;;;;;;;;;;18.91;100.00;97228.00;2540280;29;19934;-93
2023/07/25 04:58:52;;;;;;;;;;;;;;;18.90;100.00;97239.56;2539620;29;19927;-93
2023/07/25 05:00:08;;;;;;;;;;;;;;;18.99;100.00;97234.50;2540801;29;19942;-95
2023/07/25 05:01:23;;;;;;;;;;;;;;;19.02;100.00;97240.44;2539657;29;19931;-94
2023/07/25 05:02:41;;;;;;;;;;;;;;;19.10;100.00;97242.47;2541239;29;19927;-93
2023/07/25 05:03:57;;;;;;;;;;;;;;;19.11;100.00;97240.63;2539967;29;20433;-94
2023/07/25 05:05:16;;;;;;;;;;;;;;;19.17;100.00;97242.78;2540614;29;19931;-92
2023/07/25 05:06:31;;;;;;;;;;;;;;;19.11;100.00;97245.94;2539733;29;19931;-93
2023/07/25 05:07:46;;;;;;;;;;;;;;;19.12;100.00;97244.97;2540672;29;20062;-93
2023/07/25 05:09:02;;;;;;;;;;;;;;;19.11;100.00;97244.13;2539657;29;20500;-93
2023/07/25 05:10:17;;;;;;;;;;;;;;;19.06;100.00;97251.63;2539738;29;19967;-93
2023/07/25 05:11:33;;;;;;;;;;;;;;;19.11;100.00;97248.59;2540323;29;19931;-93
2023/07/25 05:12:48;;;;;;;;;;;;;;;19.16;100.00;97251.72;2540091;29;19938;-93
2023/07/25 05:14:04;;;;;;;;;;;;;;;19.13;100.00;97250.16;2540692;29;19931;-93
2023/07/25 05:15:19;;;;;;;;;;;;;;;19.12;100.00;97248.47;2539515;29;20347;-93
2023/07/25 05:16:34;;;;;;;;;;;;;;;19.07;100.00;97248.03;2540759;29;19931;-93
2023/07/25 05:17:50;;;;;;;;;;;;;;;19.25;100.00;97250.94;2539676;29;19938;-93
2023/07/25 05:19:05;;;;;;;;;;;;;;;19.37;100.00;97238.47;2540449;29;19931;-93
2023/07/25 05:20:21;;;;;;;;;;;;;;;19.39;100.00;97241.84;2539293;29;20383;-93
2023/07/25 05:21:36;;;;;;;;;;;;;;;19.42;100.00;97259.34;2540786;29;19928;-93
2023/07/25 05:22:51;;;;;;;;;;;;;;;19.43;100.00;97253.06;2539219;29;20402;-93
2023/07/25 05:24:07;;;;;;;;;;;;;;;19.50;100.00;97258.69;2540615;29;19950;-94
2023/07/25 05:25:23;;;;;;;;;;;;;;;19.53;100.00;97258.44;2539740;29;20324;-93
2023/07/25 05:26:38;;;;;;;;;;;;;;;19.51;100.00;97255.88;2540616;29;19947;-93
2023/07/25 05:27:54;;;;;;;;;;;;;;;19.59;100.00;97263.22;2528951;29;20284;-93
2023/07/25 05:29:09;;;;;;;;;;;;;;;19.61;100.00;97261.25;2534165;29;19931;-94
2023/07/25 05:30:25;;;;;;;;;;;;;;;19.58;100.00;97262.38;2539056;29;20446;-94
2023/07/25 05:31:40;;;;;;;;;;;;;;;19.60;100.00;97271.06;2540376;29;19931;-95
2023/07/25 05:32:55;;;;;;;;;;;;;;;19.37;100.00;97269.47;2539363;29;19931;-94
2023/07/25 05:34:11;;;;;;;;;;;;;;;19.45;100.00;97278.47;2541174;29;19938;-95
2023/07/25 05:35:26;;;;;;;;;;;;;;;19.42;100.00;97270.78;2539776;29;19931;-93
2023/07/25 05:36:41;;;;;;;;;;;;;;;19.69;100.00;97268.56;2539893;29;20426;-94
2023/07/25 05:37:57;;;;;;;;;;;;;;;19.85;100.00;97268.97;2540031;29;19938;-95
2023/07/25 05:39:12;;;;;;;;;;;;;;;19.59;100.00;97266.72;2539643;29;20427;-93
2023/07/25 05:40:28;;;;;;;;;;;;;;;19.47;100.00;97270.41;2540355;29;19931;-93
2023/07/25 05:41:44;;;;;;;;;;;;;;;19.69;100.00;97272.09;2539712;29;19935;-94
2023/07/25 05:42:59;;;;;;;;;;;;;;;19.76;100.00;97270.59;2539994;29;19957;-93
2023/07/25 05:44:14;;;;;;;;;;;;;;;19.75;100.00;97281.34;2539363;29;19931;-94
2023/07/25 05:45:30;;;;;;;;;;;;;;;19.77;100.00;97282.06;2540773;29;19927;-94
2023/07/25 05:46:45;;;;;;;;;;;;;;;19.88;100.00;97279.34;2539346;29;19933;-93
2023/07/25 05:48:01;;;;;;;;;;;;;;;19.74;100.00;97284.97;2540411;29;19928;-93
2023/07/25 05:49:16;;;;;;;;;;;;;;;19.77;100.00;97287.38;2539081;29;19974;-94
2023/07/25 05:50:32;;;;;;;;;;;;;;;19.71;100.00;97278.09;2540593;29;20179;-94
2023/07/25 05:51:47;;;;;;;;;;;;;;;19.69;100.00;97276.53;2539180;29;20518;-92
2023/07/25 05:53:02;;;;;;;;;;;;;;;19.70;100.00;97291.53;2540398;29;20310;-93
2023/07/25 05:54:18;;;;;;;;;;;;;;;19.93;100.00;97294.06;2539630;29;19935;-94
2023/07/25 05:55:33;;;;;;;;;;;;;;;19.89;100.00;97290.78;2540577;29;19935;-94
2023/07/25 05:56:48;;;;;;;;;;;;;;;20.02;100.00;97285.31;2539300;29;19957;-93
2023/07/25 05:58:05;;;;;;;;;;;;;;;20.09;100.00;97282.97;2540245;29;19930;-93
2023/07/25 05:59:20;;;;;;;;;;;;;;;20.10;100.00;97279.34;2539389;29;19973;-94
2023/07/25 06:00:38;;;;;;;;;;;;;;;20.06;100.00;97277.94;2540199;29;19931;-95
2023/07/25 06:01:53;;;;;;;;;;;;;;;20.17;100.00;97281.34;2538679;29;19942;-94
2023/07/25 06:03:11;;;;;;;;;;;;;;;20.23;100.00;97272.00;2539719;29;19942;-93
2023/07/25 06:04:26;;;;;;;;;;;;;;;20.26;100.00;97262.94;2528281;29;19934;-92
2023/07/25 06:05:42;;;;;;;;;;;;;;;20.28;100.00;97253.81;2533218;29;20523;-94
2023/07/25 06:06:57;;;;;;;;;;;;;;;20.28;100.00;97256.50;2539228;29;20026;-94
2023/07/25 06:08:13;;;;;;;;;;;;;;;19.81;100.00;97251.59;2539043;29;19931;-92
2023/07/25 06:09:28;;;;;;;;;;;;;;;19.95;100.00;97246.97;2539805;29;19938;-92
2023/07/25 06:10:44;;;;;;;;;;;;;;;20.13;100.00;97242.75;2538802;29;19931;-93
2023/07/25 06:12:00;;;;;;;;;;;;;;;20.11;100.00;97241.19;2539256;29;20346;-94
2023/07/25 06:13:15;;;;;;;;;;;;;;;20.21;100.00;97242.06;2538920;29;19974;-94
2023/07/25 06:14:31;;;;;;;;;;;;;;;20.20;100.00;97247.50;2540067;29;20352;-92
2023/07/25 06:15:47;;;;;;;;;;;;;;;20.21;100.00;97241.22;2538840;29;19934;-92
2023/07/25 06:17:02;;;;;;;;;;;;;;;20.32;100.00;97243.78;2539922;29;19927;-93
2023/07/25 06:18:17;;;;;;;;;;;;;;;20.36;100.00;97237.22;2538700;29;20253;-93
2023/07/25 06:19:33;;;;;;;;;;;;;;;19.94;100.00;97235.50;2539527;29;20387;-93
2023/07/25 06:20:48;;;;;;;;;;;;;;;20.24;100.00;97236.47;2538685;29;20318;-92
2023/07/25 06:22:04;;;;;;;;;;;;;;;20.12;100.00;97229.56;2539752;29;19931;-93
2023/07/25 06:23:20;;;;;;;;;;;;;;;20.36;100.00;97218.59;2528457;29;19971;-94
2023/07/25 06:24:36;;;;;;;;;;;;;;;20.52;100.00;97209.25;2533667;29;19942;-93
2023/07/25 06:25:51;;;;;;;;;;;;;;;20.48;100.00;97200.75;2538623;29;19973;-93
2023/07/25 06:27:07;;;;;;;;;;;;;;;20.45;100.00;97201.84;2529574;29;19931;-94